Kent, Minnesota
Current Conditions -  °F | °C
As of 5:55 AM on Sunday 25 Jan 2015 (Local Time) from KBWP Reporting Station
Broken Clouds Broken Clouds  
Wind Chill: 11°   Ceiling: 7500
Heat Index: 21°   Visibility: 10mi
Dew Point: 18°   Wind: 9mph
Humidity: 86%   Direction: 360°N
Pressure: 29.94"   Gusts: NA
Location:  46.44°N, 96.68°W
Report Text: KBWP 251155Z AUTO 36008KT 10SM SCT047 BKN075 M06/M08 A2994 RMK AO1
Loading
Personal Weather Stations






























Interactive Weather Map New forecast layout! Learn more

10-Day Weather Forecast

Advertisements
Track Severe Weather on mobile